sensor_id;sensor_type;location;lat;lon;timestamp;P1;durP1;ratioP1;P2;durP2;ratioP2
3407;SDS011;1717;50.240;8.406;2023-07-29T00:01:08;6.07;;;5.47;;
3407;SDS011;1717;50.240;8.406;2023-07-29T00:03:35;5.80;;;5.30;;
3407;SDS011;1717;50.240;8.406;2023-07-29T00:06:03;6.33;;;5.83;;
3407;SDS011;1717;50.240;8.406;2023-07-29T00:08:30;5.77;;;5.30;;
3407;SDS011;1717;50.240;8.406;2023-07-29T00:10:57;6.40;;;5.90;;
3407;SDS011;1717;50.240;8.406;2023-07-29T00:13:24;6.90;;;6.30;;
3407;SDS011;1717;50.240;8.406;2023-07-29T00:15:52;6.43;;;5.93;;
3407;SDS011;1717;50.240;8.406;2023-07-29T00:18:19;6.10;;;5.60;;
3407;SDS011;1717;50.240;8.406;2023-07-29T00:20:46;6.40;;;5.83;;
3407;SDS011;1717;50.240;8.406;2023-07-29T00:23:14;6.30;;;5.80;;
3407;SDS011;1717;50.240;8.406;2023-07-29T00:25:41;6.37;;;5.87;;
3407;SDS011;1717;50.240;8.406;2023-07-29T00:28:08;6.50;;;6.00;;
3407;SDS011;1717;50.240;8.406;2023-07-29T00:30:35;6.60;;;6.10;;
3407;SDS011;1717;50.240;8.406;2023-07-29T00:33:01;6.57;;;5.90;;
3407;SDS011;1717;50.240;8.406;2023-07-29T00:35:28;6.00;;;5.60;;
3407;SDS011;1717;50.240;8.406;2023-07-29T00:37:55;6.20;;;5.67;;
3407;SDS011;1717;50.240;8.406;2023-07-29T00:40:23;6.23;;;5.73;;
3407;SDS011;1717;50.240;8.406;2023-07-29T00:42:50;6.37;;;5.80;;
3407;SDS011;1717;50.240;8.406;2023-07-29T00:45:17;6.07;;;5.67;;
3407;SDS011;1717;50.240;8.406;2023-07-29T00:47:44;6.37;;;5.77;;
3407;SDS011;1717;50.240;8.406;2023-07-29T00:50:11;5.80;;;5.40;;
3407;SDS011;1717;50.240;8.406;2023-07-29T00:52:39;6.43;;;5.93;;
3407;SDS011;1717;50.240;8.406;2023-07-29T00:55:06;6.10;;;5.07;;
3407;SDS011;1717;50.240;8.406;2023-07-29T00:57:35;6.27;;;5.77;;
3407;SDS011;1717;50.240;8.406;2023-07-29T01:00:03;5.87;;;5.40;;
3407;SDS011;1717;50.240;8.406;2023-07-29T01:02:31;5.93;;;5.00;;
3407;SDS011;1717;50.240;8.406;2023-07-29T01:04:58;5.00;;;4.60;;
3407;SDS011;1717;50.240;8.406;2023-07-29T01:07:29;5.13;;;4.73;;
3407;SDS011;1717;50.240;8.406;2023-07-29T01:10:00;5.30;;;4.90;;
3407;SDS011;1717;50.240;8.406;2023-07-29T01:12:36;4.97;;;4.57;;
3407;SDS011;1717;50.240;8.406;2023-07-29T01:15:10;5.57;;;5.07;;
3407;SDS011;1717;50.240;8.406;2023-07-29T01:17:42;4.50;;;4.20;;
3407;SDS011;1717;50.240;8.406;2023-07-29T01:20:19;4.27;;;3.97;;
3407;SDS011;1717;50.240;8.406;2023-07-29T01:22:47;6.57;;;4.30;;
3407;SDS011;1717;50.240;8.406;2023-07-29T01:25:16;4.73;;;4.33;;
3407;SDS011;1717;50.240;8.406;2023-07-29T01:27:44;4.30;;;3.90;;
3407;SDS011;1717;50.240;8.406;2023-07-29T01:30:12;4.87;;;4.57;;
3407;SDS011;1717;50.240;8.406;2023-07-29T01:32:40;4.00;;;3.70;;
3407;SDS011;1717;50.240;8.406;2023-07-29T01:35:13;4.50;;;4.10;;
3407;SDS011;1717;50.240;8.406;2023-07-29T01:37:47;4.67;;;4.37;;
3407;SDS011;1717;50.240;8.406;2023-07-29T01:40:19;4.63;;;4.30;;
3407;SDS011;1717;50.240;8.406;2023-07-29T01:42:47;5.17;;;4.77;;
3407;SDS011;1717;50.240;8.406;2023-07-29T01:45:15;4.70;;;4.30;;
3407;SDS011;1717;50.240;8.406;2023-07-29T01:47:41;4.03;;;3.73;;
3407;SDS011;1717;50.240;8.406;2023-07-29T01:50:09;3.90;;;3.60;;
3407;SDS011;1717;50.240;8.406;2023-07-29T01:52:36;4.10;;;3.80;;
3407;SDS011;1717;50.240;8.406;2023-07-29T01:55:03;4.60;;;4.20;;
3407;SDS011;1717;50.240;8.406;2023-07-29T01:57:31;4.37;;;4.07;;
3407;SDS011;1717;50.240;8.406;2023-07-29T01:59:58;4.70;;;4.30;;
3407;SDS011;1717;50.240;8.406;2023-07-29T02:02:25;4.30;;;4.00;;
3407;SDS011;1717;50.240;8.406;2023-07-29T02:04:52;5.00;;;4.60;;
3407;SDS011;1717;50.240;8.406;2023-07-29T02:07:20;5.40;;;4.90;;
3407;SDS011;1717;50.240;8.406;2023-07-29T02:09:47;5.40;;;4.90;;
3407;SDS011;1717;50.240;8.406;2023-07-29T02:12:14;5.63;;;5.13;;
3407;SDS011;1717;50.240;8.406;2023-07-29T02:14:42;4.60;;;4.20;;
3407;SDS011;1717;50.240;8.406;2023-07-29T02:17:09;5.63;;;5.03;;
3407;SDS011;1717;50.240;8.406;2023-07-29T02:19:36;5.50;;;5.07;;
3407;SDS011;1717;50.240;8.406;2023-07-29T02:22:03;4.90;;;4.50;;
3407;SDS011;1717;50.240;8.406;2023-07-29T02:24:30;6.20;;;5.67;;
3407;SDS011;1717;50.240;8.406;2023-07-29T02:26:56;5.53;;;5.03;;
3407;SDS011;1717;50.240;8.406;2023-07-29T02:29:23;5.80;;;5.20;;
3407;SDS011;1717;50.240;8.406;2023-07-29T02:31:51;5.93;;;5.43;;
3407;SDS011;1717;50.240;8.406;2023-07-29T02:34:18;5.40;;;5.00;;
3407;SDS011;1717;50.240;8.406;2023-07-29T02:36:45;5.33;;;4.93;;
3407;SDS011;1717;50.240;8.406;2023-07-29T02:39:12;5.90;;;5.40;;
3407;SDS011;1717;50.240;8.406;2023-07-29T02:41:39;5.70;;;5.20;;
3407;SDS011;1717;50.240;8.406;2023-07-29T02:44:05;5.37;;;4.87;;
3407;SDS011;1717;50.240;8.406;2023-07-29T02:46:32;6.60;;;6.00;;
3407;SDS011;1717;50.240;8.406;2023-07-29T02:49:01;7.27;;;5.67;;
3407;SDS011;1717;50.240;8.406;2023-07-29T02:51:28;5.13;;;4.73;;
3407;SDS011;1717;50.240;8.406;2023-07-29T02:53:55;5.67;;;5.17;;
3407;SDS011;1717;50.240;8.406;2023-07-29T02:56:22;7.27;;;6.00;;
3407;SDS011;1717;50.240;8.406;2023-07-29T02:58:49;6.43;;;5.93;;
3407;SDS011;1717;50.240;8.406;2023-07-29T03:01:16;6.30;;;5.70;;
3407;SDS011;1717;50.240;8.406;2023-07-29T03:03:43;6.30;;;5.70;;
3407;SDS011;1717;50.240;8.406;2023-07-29T03:06:13;6.27;;;5.73;;
3407;SDS011;1717;50.240;8.406;2023-07-29T03:08:40;6.23;;;5.73;;
3407;SDS011;1717;50.240;8.406;2023-07-29T03:11:08;5.93;;;5.43;;
3407;SDS011;1717;50.240;8.406;2023-07-29T03:13:36;5.83;;;5.23;;
3407;SDS011;1717;50.240;8.406;2023-07-29T03:16:06;5.33;;;4.87;;
3407;SDS011;1717;50.240;8.406;2023-07-29T03:18:33;4.77;;;4.40;;
3407;SDS011;1717;50.240;8.406;2023-07-29T03:21:01;5.67;;;5.10;;
3407;SDS011;1717;50.240;8.406;2023-07-29T03:23:30;4.47;;;4.07;;
3407;SDS011;1717;50.240;8.406;2023-07-29T03:25:58;13.93;;;4.90;;
3407;SDS011;1717;50.240;8.406;2023-07-29T03:28:26;4.37;;;4.07;;
3407;SDS011;1717;50.240;8.406;2023-07-29T03:30:54;5.07;;;4.57;;
3407;SDS011;1717;50.240;8.406;2023-07-29T03:33:21;4.77;;;4.43;;
3407;SDS011;1717;50.240;8.406;2023-07-29T03:35:49;4.33;;;4.03;;
3407;SDS011;1717;50.240;8.406;2023-07-29T03:38:15;3.97;;;3.57;;
3407;SDS011;1717;50.240;8.406;2023-07-29T03:40:44;4.23;;;3.93;;
3407;SDS011;1717;50.240;8.406;2023-07-29T03:43:10;3.93;;;3.63;;
3407;SDS011;1717;50.240;8.406;2023-07-29T03:45:39;4.53;;;4.17;;
3407;SDS011;1717;50.240;8.406;2023-07-29T03:48:06;4.43;;;4.03;;
3407;SDS011;1717;50.240;8.406;2023-07-29T03:50:33;4.03;;;3.73;;
3407;SDS011;1717;50.240;8.406;2023-07-29T03:53:01;4.83;;;4.43;;
3407;SDS011;1717;50.240;8.406;2023-07-29T03:55:28;4.40;;;4.00;;
3407;SDS011;1717;50.240;8.406;2023-07-29T03:57:57;3.93;;;3.63;;
3407;SDS011;1717;50.240;8.406;2023-07-29T04:00:24;4.67;;;4.00;;
3407;SDS011;1717;50.240;8.406;2023-07-29T04:02:51;4.70;;;4.30;;
3407;SDS011;1717;50.240;8.406;2023-07-29T04:05:18;4.00;;;3.70;;
3407;SDS011;1717;50.240;8.406;2023-07-29T04:07:45;5.00;;;4.60;;
3407;SDS011;1717;50.240;8.406;2023-07-29T04:10:12;4.80;;;4.40;;
3407;SDS011;1717;50.240;8.406;2023-07-29T04:12:39;5.03;;;4.57;;
3407;SDS011;1717;50.240;8.406;2023-07-29T04:15:08;4.57;;;4.17;;
3407;SDS011;1717;50.240;8.406;2023-07-29T04:17:35;4.73;;;4.23;;
3407;SDS011;1717;50.240;8.406;2023-07-29T04:20:02;5.03;;;4.60;;
3407;SDS011;1717;50.240;8.406;2023-07-29T04:22:30;4.40;;;4.03;;
3407;SDS011;1717;50.240;8.406;2023-07-29T04:24:57;5.63;;;5.13;;
3407;SDS011;1717;50.240;8.406;2023-07-29T04:27:23;5.20;;;4.47;;
3407;SDS011;1717;50.240;8.406;2023-07-29T04:29:50;4.97;;;4.57;;
3407;SDS011;1717;50.240;8.406;2023-07-29T04:32:18;5.57;;;5.07;;
3407;SDS011;1717;50.240;8.406;2023-07-29T04:34:45;4.90;;;4.50;;
3407;SDS011;1717;50.240;8.406;2023-07-29T04:37:12;4.87;;;4.47;;
3407;SDS011;1717;50.240;8.406;2023-07-29T04:39:39;5.23;;;4.73;;
3407;SDS011;1717;50.240;8.406;2023-07-29T04:42:06;5.77;;;5.27;;
3407;SDS011;1717;50.240;8.406;2023-07-29T04:44:32;5.50;;;5.00;;
3407;SDS011;1717;50.240;8.406;2023-07-29T04:46:59;5.83;;;5.23;;
3407;SDS011;1717;50.240;8.406;2023-07-29T04:49:28;5.40;;;4.90;;
3407;SDS011;1717;50.240;8.406;2023-07-29T04:51:54;5.90;;;5.40;;
3407;SDS011;1717;50.240;8.406;2023-07-29T04:54:21;5.90;;;5.40;;
3407;SDS011;1717;50.240;8.406;2023-07-29T04:56:48;5.50;;;5.00;;
3407;SDS011;1717;50.240;8.406;2023-07-29T04:59:15;5.97;;;5.37;;
3407;SDS011;1717;50.240;8.406;2023-07-29T05:01:42;5.57;;;4.90;;
3407;SDS011;1717;50.240;8.406;2023-07-29T05:04:08;6.83;;;5.33;;
3407;SDS011;1717;50.240;8.406;2023-07-29T05:06:37;6.23;;;5.63;;
3407;SDS011;1717;50.240;8.406;2023-07-29T05:09:13;6.03;;;5.43;;
3407;SDS011;1717;50.240;8.406;2023-07-29T05:11:40;5.23;;;4.83;;
3407;SDS011;1717;50.240;8.406;2023-07-29T05:14:08;5.37;;;4.97;;
3407;SDS011;1717;50.240;8.406;2023-07-29T05:16:35;5.50;;;5.00;;
3407;SDS011;1717;50.240;8.406;2023-07-29T05:19:02;5.90;;;5.40;;
3407;SDS011;1717;50.240;8.406;2023-07-29T05:21:29;6.27;;;5.63;;
3407;SDS011;1717;50.240;8.406;2023-07-29T05:23:57;5.43;;;4.93;;
3407;SDS011;1717;50.240;8.406;2023-07-29T05:26:24;5.53;;;5.03;;
3407;SDS011;1717;50.240;8.406;2023-07-29T05:28:51;5.73;;;5.23;;
3407;SDS011;1717;50.240;8.406;2023-07-29T05:31:17;5.10;;;4.70;;
3407;SDS011;1717;50.240;8.406;2023-07-29T05:33:44;6.43;;;5.83;;
3407;SDS011;1717;50.240;8.406;2023-07-29T05:36:11;7.30;;;5.57;;
3407;SDS011;1717;50.240;8.406;2023-07-29T05:38:38;4.90;;;4.50;;
3407;SDS011;1717;50.240;8.406;2023-07-29T05:41:06;5.57;;;5.07;;
3407;SDS011;1717;50.240;8.406;2023-07-29T05:43:33;5.77;;;5.27;;
3407;SDS011;1717;50.240;8.406;2023-07-29T05:46:00;5.73;;;5.23;;
3407;SDS011;1717;50.240;8.406;2023-07-29T05:48:27;6.07;;;5.50;;
3407;SDS011;1717;50.240;8.406;2023-07-29T05:50:54;6.33;;;5.73;;
3407;SDS011;1717;50.240;8.406;2023-07-29T05:53:20;7.60;;;6.73;;
3407;SDS011;1717;50.240;8.406;2023-07-29T05:55:47;5.90;;;5.40;;
3407;SDS011;1717;50.240;8.406;2023-07-29T05:58:16;6.20;;;5.70;;
3407;SDS011;1717;50.240;8.406;2023-07-29T06:00:42;6.30;;;5.20;;
3407;SDS011;1717;50.240;8.406;2023-07-29T06:03:09;6.20;;;5.70;;
3407;SDS011;1717;50.240;8.406;2023-07-29T06:05:36;6.87;;;6.27;;
3407;SDS011;1717;50.240;8.406;2023-07-29T06:08:03;6.43;;;5.83;;
3407;SDS011;1717;50.240;8.406;2023-07-29T06:10:30;6.80;;;5.03;;
3407;SDS011;1717;50.240;8.406;2023-07-29T06:12:57;6.07;;;5.60;;
3407;SDS011;1717;50.240;8.406;2023-07-29T06:15:25;6.37;;;5.77;;
3407;SDS011;1717;50.240;8.406;2023-07-29T06:17:52;6.90;;;6.30;;
3407;SDS011;1717;50.240;8.406;2023-07-29T06:20:19;6.40;;;5.90;;
3407;SDS011;1717;50.240;8.406;2023-07-29T06:22:46;6.57;;;6.07;;
3407;SDS011;1717;50.240;8.406;2023-07-29T06:25:13;6.83;;;6.23;;
3407;SDS011;1717;50.240;8.406;2023-07-29T06:27:40;6.80;;;6.30;;
3407;SDS011;1717;50.240;8.406;2023-07-29T06:30:07;6.47;;;5.97;;
3407;SDS011;1717;50.240;8.406;2023-07-29T06:32:35;6.83;;;6.13;;
3407;SDS011;1717;50.240;8.406;2023-07-29T06:35:02;6.77;;;6.17;;
3407;SDS011;1717;50.240;8.406;2023-07-29T06:37:29;6.10;;;5.63;;
3407;SDS011;1717;50.240;8.406;2023-07-29T06:39:58;5.60;;;5.20;;
3407;SDS011;1717;50.240;8.406;2023-07-29T06:42:25;6.17;;;5.57;;
3407;SDS011;1717;50.240;8.406;2023-07-29T06:44:51;5.63;;;5.23;;
3407;SDS011;1717;50.240;8.406;2023-07-29T06:47:18;5.90;;;5.40;;
3407;SDS011;1717;50.240;8.406;2023-07-29T06:49:46;6.53;;;6.03;;
3407;SDS011;1717;50.240;8.406;2023-07-29T06:52:13;6.37;;;5.77;;
3407;SDS011;1717;50.240;8.406;2023-07-29T06:54:40;6.40;;;5.60;;
3407;SDS011;1717;50.240;8.406;2023-07-29T06:57:07;6.50;;;5.87;;
3407;SDS011;1717;50.240;8.406;2023-07-29T06:59:34;5.80;;;5.30;;
3407;SDS011;1717;50.240;8.406;2023-07-29T07:02:01;6.07;;;5.57;;
3407;SDS011;1717;50.240;8.406;2023-07-29T07:04:27;6.13;;;5.63;;
3407;SDS011;1717;50.240;8.406;2023-07-29T07:06:56;6.77;;;5.27;;
3407;SDS011;1717;50.240;8.406;2023-07-29T07:09:22;5.27;;;4.80;;
3407;SDS011;1717;50.240;8.406;2023-07-29T07:11:49;5.60;;;5.20;;
3407;SDS011;1717;50.240;8.406;2023-07-29T07:14:16;5.60;;;5.20;;
3407;SDS011;1717;50.240;8.406;2023-07-29T07:16:43;5.63;;;5.03;;
3407;SDS011;1717;50.240;8.406;2023-07-29T07:19:10;6.20;;;5.70;;
3407;SDS011;1717;50.240;8.406;2023-07-29T07:21:37;5.93;;;5.53;;
3407;SDS011;1717;50.240;8.406;2023-07-29T07:24:05;5.70;;;5.20;;
3407;SDS011;1717;50.240;8.406;2023-07-29T07:26:32;5.30;;;4.90;;
3407;SDS011;1717;50.240;8.406;2023-07-29T07:28:59;6.33;;;5.73;;
3407;SDS011;1717;50.240;8.406;2023-07-29T07:31:26;5.13;;;4.73;;
3407;SDS011;1717;50.240;8.406;2023-07-29T07:33:52;4.80;;;4.40;;
3407;SDS011;1717;50.240;8.406;2023-07-29T07:36:20;5.93;;;5.17;;
3407;SDS011;1717;50.240;8.406;2023-07-29T07:38:47;5.60;;;5.20;;
3407;SDS011;1717;50.240;8.406;2023-07-29T07:41:15;5.10;;;4.60;;
3407;SDS011;1717;50.240;8.406;2023-07-29T07:43:42;5.33;;;4.80;;
3407;SDS011;1717;50.240;8.406;2023-07-29T07:46:09;5.23;;;4.60;;
3407;SDS011;1717;50.240;8.406;2023-07-29T07:48:36;5.70;;;5.20;;
3407;SDS011;1717;50.240;8.406;2023-07-29T07:51:09;5.27;;;4.87;;
3407;SDS011;1717;50.240;8.406;2023-07-29T07:53:37;5.50;;;5.10;;
3407;SDS011;1717;50.240;8.406;2023-07-29T07:56:05;6.20;;;5.00;;
3407;SDS011;1717;50.240;8.406;2023-07-29T07:58:33;4.87;;;4.37;;
3407;SDS011;1717;50.240;8.406;2023-07-29T08:01:00;6.50;;;4.60;;
3407;SDS011;1717;50.240;8.406;2023-07-29T08:03:28;5.40;;;5.00;;
3407;SDS011;1717;50.240;8.406;2023-07-29T08:05:54;5.93;;;5.43;;
3407;SDS011;1717;50.240;8.406;2023-07-29T08:08:21;4.07;;;3.77;;
3407;SDS011;1717;50.240;8.406;2023-07-29T08:10:48;5.37;;;4.87;;
3407;SDS011;1717;50.240;8.406;2023-07-29T08:13:15;5.30;;;4.90;;
3407;SDS011;1717;50.240;8.406;2023-07-29T08:15:46;6.20;;;5.60;;
3407;SDS011;1717;50.240;8.406;2023-07-29T08:18:13;5.37;;;4.87;;
3407;SDS011;1717;50.240;8.406;2023-07-29T08:20:40;5.20;;;4.70;;
3407;SDS011;1717;50.240;8.406;2023-07-29T08:23:07;5.57;;;5.00;;
3407;SDS011;1717;50.240;8.406;2023-07-29T08:25:34;5.23;;;4.30;;
3407;SDS011;1717;50.240;8.406;2023-07-29T08:28:01;6.70;;;5.67;;
3407;SDS011;1717;50.240;8.406;2023-07-29T08:30:28;5.67;;;4.33;;
3407;SDS011;1717;50.240;8.406;2023-07-29T08:32:56;5.60;;;5.10;;
3407;SDS011;1717;50.240;8.406;2023-07-29T08:35:23;5.20;;;4.50;;
3407;SDS011;1717;50.240;8.406;2023-07-29T08:37:50;5.37;;;4.70;;
3407;SDS011;1717;50.240;8.406;2023-07-29T08:40:17;4.03;;;3.60;;
3407;SDS011;1717;50.240;8.406;2023-07-29T08:42:44;4.07;;;3.77;;
3407;SDS011;1717;50.240;8.406;2023-07-29T08:45:12;4.40;;;4.00;;
3407;SDS011;1717;50.240;8.406;2023-07-29T08:47:40;5.13;;;4.50;;
3407;SDS011;1717;50.240;8.406;2023-07-29T08:50:08;6.90;;;4.60;;
3407;SDS011;1717;50.240;8.406;2023-07-29T08:52:36;4.30;;;3.53;;
3407;SDS011;1717;50.240;8.406;2023-07-29T08:55:04;7.13;;;4.47;;
3407;SDS011;1717;50.240;8.406;2023-07-29T08:57:31;6.60;;;5.10;;
3407;SDS011;1717;50.240;8.406;2023-07-29T08:59:58;3.27;;;2.87;;
3407;SDS011;1717;50.240;8.406;2023-07-29T09:02:27;4.50;;;3.30;;
3407;SDS011;1717;50.240;8.406;2023-07-29T09:04:54;6.13;;;4.20;;
3407;SDS011;1717;50.240;8.406;2023-07-29T09:07:22;3.67;;;3.37;;
3407;SDS011;1717;50.240;8.406;2023-07-29T09:09:49;5.07;;;3.90;;
3407;SDS011;1717;50.240;8.406;2023-07-29T09:12:16;4.47;;;4.07;;
3407;SDS011;1717;50.240;8.406;2023-07-29T09:14:43;6.50;;;4.43;;
3407;SDS011;1717;50.240;8.406;2023-07-29T09:17:09;6.63;;;3.80;;
3407;SDS011;1717;50.240;8.406;2023-07-29T09:19:36;6.80;;;5.10;;
3407;SDS011;1717;50.240;8.406;2023-07-29T09:22:04;8.43;;;5.30;;
3407;SDS011;1717;50.240;8.406;2023-07-29T09:24:32;5.93;;;5.00;;
3407;SDS011;1717;50.240;8.406;2023-07-29T09:26:59;8.00;;;5.10;;
3407;SDS011;1717;50.240;8.406;2023-07-29T09:29:27;5.07;;;4.33;;
3407;SDS011;1717;50.240;8.406;2023-07-29T09:31:59;4.57;;;3.80;;
3407;SDS011;1717;50.240;8.406;2023-07-29T09:34:44;3.87;;;3.40;;
3407;SDS011;1717;50.240;8.406;2023-07-29T09:37:15;3.93;;;2.90;;
3407;SDS011;1717;50.240;8.406;2023-07-29T09:39:45;4.10;;;3.80;;
3407;SDS011;1717;50.240;8.406;2023-07-29T09:42:16;3.70;;;3.23;;
3407;SDS011;1717;50.240;8.406;2023-07-29T09:44:44;3.80;;;2.83;;
3407;SDS011;1717;50.240;8.406;2023-07-29T09:47:18;2.93;;;2.60;;
3407;SDS011;1717;50.240;8.406;2023-07-29T09:49:46;3.30;;;3.10;;
3407;SDS011;1717;50.240;8.406;2023-07-29T09:52:14;3.23;;;2.90;;
3407;SDS011;1717;50.240;8.406;2023-07-29T09:54:42;2.97;;;2.77;;
3407;SDS011;1717;50.240;8.406;2023-07-29T09:57:11;2.70;;;2.43;;
3407;SDS011;1717;50.240;8.406;2023-07-29T09:59:39;3.40;;;2.50;;
3407;SDS011;1717;50.240;8.406;2023-07-29T10:02:07;2.50;;;2.30;;
3407;SDS011;1717;50.240;8.406;2023-07-29T10:04:42;3.13;;;2.80;;
3407;SDS011;1717;50.240;8.406;2023-07-29T10:07:09;3.30;;;2.70;;
3407;SDS011;1717;50.240;8.406;2023-07-29T10:09:37;3.53;;;3.23;;
3407;SDS011;1717;50.240;8.406;2023-07-29T10:12:07;3.03;;;2.83;;
3407;SDS011;1717;50.240;8.406;2023-07-29T10:14:36;3.10;;;2.80;;
3407;SDS011;1717;50.240;8.406;2023-07-29T10:17:04;3.00;;;2.80;;
3407;SDS011;1717;50.240;8.406;2023-07-29T10:19:31;3.07;;;2.83;;
3407;SDS011;1717;50.240;8.406;2023-07-29T10:21:59;3.03;;;2.83;;
3407;SDS011;1717;50.240;8.406;2023-07-29T10:24:29;3.17;;;2.97;;
3407;SDS011;1717;50.240;8.406;2023-07-29T10:26:58;3.67;;;3.37;;
3407;SDS011;1717;50.240;8.406;2023-07-29T10:29:30;3.03;;;2.67;;
3407;SDS011;1717;50.240;8.406;2023-07-29T10:31:58;3.13;;;2.90;;
3407;SDS011;1717;50.240;8.406;2023-07-29T10:34:29;9.87;;;7.43;;
3407;SDS011;1717;50.240;8.406;2023-07-29T10:36:57;32.80;;;24.30;;
3407;SDS011;1717;50.240;8.406;2023-07-29T10:39:25;11.83;;;9.83;;
3407;SDS011;1717;50.240;8.406;2023-07-29T10:41:55;10.73;;;9.10;;
3407;SDS011;1717;50.240;8.406;2023-07-29T10:47:17;7.97;;;6.93;;
3407;SDS011;1717;50.240;8.406;2023-07-29T10:49:45;7.93;;;7.23;;
3407;SDS011;1717;50.240;8.406;2023-07-29T10:52:13;7.43;;;6.73;;
3407;SDS011;1717;50.240;8.406;2023-07-29T10:54:41;7.13;;;6.43;;
3407;SDS011;1717;50.240;8.406;2023-07-29T10:57:12;5.20;;;4.70;;
3407;SDS011;1717;50.240;8.406;2023-07-29T10:59:40;4.90;;;4.37;;
3407;SDS011;1717;50.240;8.406;2023-07-29T11:02:17;4.83;;;4.37;;
3407;SDS011;1717;50.240;8.406;2023-07-29T11:04:49;4.90;;;4.17;;
3407;SDS011;1717;50.240;8.406;2023-07-29T11:07:23;4.23;;;3.63;;
3407;SDS011;1717;50.240;8.406;2023-07-29T11:09:53;4.10;;;3.70;;
3407;SDS011;1717;50.240;8.406;2023-07-29T11:12:34;3.83;;;3.53;;
3407;SDS011;1717;50.240;8.406;2023-07-29T11:15:20;4.77;;;3.63;;
3407;SDS011;1717;50.240;8.406;2023-07-29T11:17:50;13.53;;;3.93;;
3407;SDS011;1717;50.240;8.406;2023-07-29T11:20:19;3.80;;;3.40;;
3407;SDS011;1717;50.240;8.406;2023-07-29T11:22:47;3.93;;;3.63;;
3407;SDS011;1717;50.240;8.406;2023-07-29T11:25:15;4.03;;;3.73;;
3407;SDS011;1717;50.240;8.406;2023-07-29T11:27:43;3.93;;;3.53;;
3407;SDS011;1717;50.240;8.406;2023-07-29T11:30:11;4.70;;;3.03;;
3407;SDS011;1717;50.240;8.406;2023-07-29T11:32:39;3.00;;;2.73;;
3407;SDS011;1717;50.240;8.406;2023-07-29T11:35:08;3.27;;;3.07;;
3407;SDS011;1717;50.240;8.406;2023-07-29T11:37:38;3.43;;;3.10;;
3407;SDS011;1717;50.240;8.406;2023-07-29T11:40:05;2.60;;;2.40;;
3407;SDS011;1717;50.240;8.406;2023-07-29T11:42:35;2.63;;;2.43;;
3407;SDS011;1717;50.240;8.406;2023-07-29T11:45:03;5.37;;;3.53;;
3407;SDS011;1717;50.240;8.406;2023-07-29T11:47:31;4.33;;;3.27;;
3407;SDS011;1717;50.240;8.406;2023-07-29T11:50:01;3.40;;;3.00;;
3407;SDS011;1717;50.240;8.406;2023-07-29T11:52:30;3.17;;;2.87;;
3407;SDS011;1717;50.240;8.406;2023-07-29T11:54:58;2.83;;;2.63;;
3407;SDS011;1717;50.240;8.406;2023-07-29T11:57:26;2.73;;;2.53;;
3407;SDS011;1717;50.240;8.406;2023-07-29T11:59:53;3.83;;;3.43;;
3407;SDS011;1717;50.240;8.406;2023-07-29T12:02:20;3.40;;;3.10;;
3407;SDS011;1717;50.240;8.406;2023-07-29T12:04:48;2.60;;;2.40;;
3407;SDS011;1717;50.240;8.406;2023-07-29T12:07:16;4.57;;;2.33;;
3407;SDS011;1717;50.240;8.406;2023-07-29T12:09:45;2.67;;;2.47;;
3407;SDS011;1717;50.240;8.406;2023-07-29T12:12:12;2.60;;;2.40;;
3407;SDS011;1717;50.240;8.406;2023-07-29T12:14:43;2.20;;;2.07;;
3407;SDS011;1717;50.240;8.406;2023-07-29T12:17:11;2.73;;;2.53;;
3407;SDS011;1717;50.240;8.406;2023-07-29T12:19:38;2.60;;;2.40;;
3407;SDS011;1717;50.240;8.406;2023-07-29T12:22:07;2.97;;;2.73;;
3407;SDS011;1717;50.240;8.406;2023-07-29T12:24:35;1.80;;;1.70;;
3407;SDS011;1717;50.240;8.406;2023-07-29T12:27:05;2.13;;;1.93;;
3407;SDS011;1717;50.240;8.406;2023-07-29T12:29:39;4.20;;;2.07;;
3407;SDS011;1717;50.240;8.406;2023-07-29T12:32:06;2.50;;;2.00;;
3407;SDS011;1717;50.240;8.406;2023-07-29T12:34:34;3.67;;;2.13;;
3407;SDS011;1717;50.240;8.406;2023-07-29T12:37:03;3.00;;;2.50;;
3407;SDS011;1717;50.240;8.406;2023-07-29T12:39:31;2.60;;;1.97;;
3407;SDS011;1717;50.240;8.406;2023-07-29T12:41:59;2.83;;;2.03;;
3407;SDS011;1717;50.240;8.406;2023-07-29T12:44:29;6.00;;;2.33;;
3407;SDS011;1717;50.240;8.406;2023-07-29T12:46:57;3.80;;;2.30;;
3407;SDS011;1717;50.240;8.406;2023-07-29T12:49:24;2.60;;;2.30;;
3407;SDS011;1717;50.240;8.406;2023-07-29T12:51:51;2.40;;;2.20;;
3407;SDS011;1717;50.240;8.406;2023-07-29T12:54:18;3.70;;;3.40;;
3407;SDS011;1717;50.240;8.406;2023-07-29T12:56:44;3.03;;;1.80;;
3407;SDS011;1717;50.240;8.406;2023-07-29T12:59:11;2.20;;;2.00;;
3407;SDS011;1717;50.240;8.406;2023-07-29T13:01:40;2.53;;;2.13;;
3407;SDS011;1717;50.240;8.406;2023-07-29T13:04:07;3.73;;;2.23;;
3407;SDS011;1717;50.240;8.406;2023-07-29T13:06:33;5.10;;;2.27;;
3407;SDS011;1717;50.240;8.406;2023-07-29T13:09:00;2.40;;;2.20;;
3407;SDS011;1717;50.240;8.406;2023-07-29T13:11:28;2.83;;;2.03;;
3407;SDS011;1717;50.240;8.406;2023-07-29T13:13:57;2.40;;;2.20;;
3407;SDS011;1717;50.240;8.406;2023-07-29T13:16:25;2.23;;;1.90;;
3407;SDS011;1717;50.240;8.406;2023-07-29T13:18:53;2.33;;;2.13;;
3407;SDS011;1717;50.240;8.406;2023-07-29T13:21:20;2.50;;;2.10;;
3407;SDS011;1717;50.240;8.406;2023-07-29T13:23:47;2.50;;;2.17;;
3407;SDS011;1717;50.240;8.406;2023-07-29T13:26:14;2.13;;;1.93;;
3407;SDS011;1717;50.240;8.406;2023-07-29T13:28:41;2.90;;;2.30;;
3407;SDS011;1717;50.240;8.406;2023-07-29T13:31:08;3.77;;;2.30;;
3407;SDS011;1717;50.240;8.406;2023-07-29T13:33:34;2.00;;;1.80;;
3407;SDS011;1717;50.240;8.406;2023-07-29T13:36:03;2.50;;;1.83;;
3407;SDS011;1717;50.240;8.406;2023-07-29T13:38:33;2.40;;;2.20;;
3407;SDS011;1717;50.240;8.406;2023-07-29T13:41:00;4.63;;;1.90;;
3407;SDS011;1717;50.240;8.406;2023-07-29T13:43:27;1.83;;;1.63;;
3407;SDS011;1717;50.240;8.406;2023-07-29T13:45:54;1.80;;;1.70;;
3407;SDS011;1717;50.240;8.406;2023-07-29T13:48:20;2.67;;;2.33;;
3407;SDS011;1717;50.240;8.406;2023-07-29T13:50:47;2.07;;;1.90;;
3407;SDS011;1717;50.240;8.406;2023-07-29T13:53:15;1.73;;;1.63;;
3407;SDS011;1717;50.240;8.406;2023-07-29T13:55:42;2.30;;;2.03;;
3407;SDS011;1717;50.240;8.406;2023-07-29T13:58:09;1.73;;;1.47;;
3407;SDS011;1717;50.240;8.406;2023-07-29T14:00:36;3.43;;;1.60;;
3407;SDS011;1717;50.240;8.406;2023-07-29T14:03:03;2.60;;;1.93;;
3407;SDS011;1717;50.240;8.406;2023-07-29T14:05:29;2.80;;;1.60;;
3407;SDS011;1717;50.240;8.406;2023-07-29T14:07:56;3.27;;;1.80;;
3407;SDS011;1717;50.240;8.406;2023-07-29T14:10:25;1.80;;;1.43;;
3407;SDS011;1717;50.240;8.406;2023-07-29T14:12:51;4.00;;;1.40;;
3407;SDS011;1717;50.240;8.406;2023-07-29T14:15:18;1.47;;;1.30;;
3407;SDS011;1717;50.240;8.406;2023-07-29T14:17:45;1.70;;;1.57;;
3407;SDS011;1717;50.240;8.406;2023-07-29T14:20:12;3.43;;;1.77;;
3407;SDS011;1717;50.240;8.406;2023-07-29T14:22:39;2.37;;;2.00;;
3407;SDS011;1717;50.240;8.406;2023-07-29T14:25:07;2.33;;;1.93;;
3407;SDS011;1717;50.240;8.406;2023-07-29T14:27:35;2.30;;;2.10;;
3407;SDS011;1717;50.240;8.406;2023-07-29T14:30:02;2.10;;;1.80;;
3407;SDS011;1717;50.240;8.406;2023-07-29T14:32:30;2.10;;;1.80;;
3407;SDS011;1717;50.240;8.406;2023-07-29T14:34:56;2.20;;;2.00;;
3407;SDS011;1717;50.240;8.406;2023-07-29T14:37:29;2.97;;;2.20;;
3407;SDS011;1717;50.240;8.406;2023-07-29T14:39:56;2.30;;;2.10;;
3407;SDS011;1717;50.240;8.406;2023-07-29T14:42:23;1.77;;;1.67;;
3407;SDS011;1717;50.240;8.406;2023-07-29T14:44:52;1.73;;;1.63;;
3407;SDS011;1717;50.240;8.406;2023-07-29T14:47:18;2.40;;;2.03;;
3407;SDS011;1717;50.240;8.406;2023-07-29T14:49:45;1.80;;;1.70;;
3407;SDS011;1717;50.240;8.406;2023-07-29T14:52:12;3.53;;;2.20;;
3407;SDS011;1717;50.240;8.406;2023-07-29T14:54:39;2.47;;;1.87;;
3407;SDS011;1717;50.240;8.406;2023-07-29T14:57:06;2.33;;;1.90;;
3407;SDS011;1717;50.240;8.406;2023-07-29T14:59:33;1.87;;;1.77;;
3407;SDS011;1717;50.240;8.406;2023-07-29T15:02:01;1.90;;;1.80;;
3407;SDS011;1717;50.240;8.406;2023-07-29T15:04:28;2.53;;;1.70;;
3407;SDS011;1717;50.240;8.406;2023-07-29T15:06:55;1.80;;;1.70;;
3407;SDS011;1717;50.240;8.406;2023-07-29T15:09:23;1.80;;;1.70;;
3407;SDS011;1717;50.240;8.406;2023-07-29T15:11:50;5.60;;;2.30;;
3407;SDS011;1717;50.240;8.406;2023-07-29T15:14:16;4.73;;;2.20;;
3407;SDS011;1717;50.240;8.406;2023-07-29T15:16:43;2.30;;;2.10;;
3407;SDS011;1717;50.240;8.406;2023-07-29T15:19:11;1.80;;;1.63;;
3407;SDS011;1717;50.240;8.406;2023-07-29T15:21:39;1.97;;;1.73;;